createdAt,value
2023-12-11T00:02:07.788Z,21.30
2023-12-11T00:04:39.655Z,20.43
2023-12-11T00:07:11.602Z,26.20
2023-12-11T00:09:43.808Z,28.43
2023-12-11T00:12:17.094Z,25.37
2023-12-11T00:14:49.196Z,29.93
2023-12-11T00:17:21.085Z,31.73
2023-12-11T00:19:52.983Z,22.63
2023-12-11T00:22:25.026Z,15.67
2023-12-11T00:24:57.347Z,25.33
2023-12-11T00:27:29.675Z,21.00
2023-12-11T00:30:01.875Z,22.30
2023-12-11T00:32:33.753Z,21.80
2023-12-11T00:35:05.655Z,27.07
2023-12-11T00:37:37.489Z,27.23
2023-12-11T00:40:09.431Z,21.73
2023-12-11T00:42:41.410Z,30.73
2023-12-11T00:45:13.312Z,29.20
2023-12-11T00:47:45.186Z,18.47
2023-12-11T00:50:17.127Z,26.57
2023-12-11T00:52:48.978Z,25.50
2023-12-11T00:55:20.884Z,24.27
2023-12-11T00:57:53.105Z,31.23
2023-12-11T01:00:24.992Z,31.40
2023-12-11T01:02:56.973Z,24.77
2023-12-11T01:05:28.944Z,21.83
2023-12-11T01:08:00.905Z,18.27
2023-12-11T01:10:32.799Z,22.80
2023-12-11T01:13:04.676Z,21.33
2023-12-11T01:15:36.551Z,32.30
2023-12-11T01:18:08.432Z,32.93
2023-12-11T01:20:40.460Z,23.30
2023-12-11T01:23:12.437Z,23.27
2023-12-11T01:25:45.407Z,22.57
2023-12-11T01:28:17.351Z,18.33
2023-12-11T01:30:49.333Z,25.10
2023-12-11T01:33:21.458Z,28.20
2023-12-11T01:35:53.467Z,20.47
2023-12-11T01:38:25.375Z,24.63
2023-12-11T01:40:57.227Z,16.50
2023-12-11T01:43:29.176Z,26.10
2023-12-11T01:46:01.074Z,20.07
2023-12-11T01:48:33.112Z,23.33
2023-12-11T01:51:05.241Z,21.80
2023-12-11T01:53:37.102Z,20.20
2023-12-11T01:56:08.990Z,30.93
2023-12-11T01:58:40.852Z,24.53
2023-12-11T02:01:12.737Z,19.77
2023-12-11T02:03:44.725Z,34.60
2023-12-11T02:06:16.704Z,26.73
2023-12-11T02:08:48.601Z,17.40
2023-12-11T02:11:20.485Z,18.33
2023-12-11T02:13:52.339Z,23.00
2023-12-11T02:16:24.296Z,20.90
2023-12-11T02:18:56.190Z,23.40
2023-12-11T02:21:28.129Z,17.63
2023-12-11T02:24:00.258Z,17.47
2023-12-11T02:26:32.089Z,22.00
2023-12-11T02:29:03.955Z,15.20
2023-12-11T02:31:35.832Z,21.17
2023-12-11T02:34:07.733Z,19.97
2023-12-11T02:36:39.848Z,17.73
2023-12-11T02:39:11.718Z,10.67
2023-12-11T02:41:43.615Z,28.00
2023-12-11T02:44:15.546Z,22.20
2023-12-11T02:46:47.467Z,14.77
2023-12-11T02:49:19.439Z,24.63
2023-12-11T02:51:51.591Z,21.63
2023-12-11T02:54:23.436Z,21.57
2023-12-11T02:56:55.259Z,19.93
2023-12-11T02:59:27.270Z,17.17
2023-12-11T03:01:59.166Z,18.57
2023-12-11T03:04:31.182Z,22.60
2023-12-11T03:07:03.226Z,19.57
2023-12-11T03:09:35.199Z,24.47
2023-12-11T03:12:07.017Z,18.30
2023-12-11T03:14:39.005Z,20.93
2023-12-11T03:17:11.001Z,17.87
2023-12-11T03:19:42.927Z,18.63
2023-12-11T03:22:14.886Z,23.60
2023-12-11T03:24:46.858Z,23.60
2023-12-11T03:27:18.867Z,17.43
2023-12-11T03:29:50.754Z,16.03
2023-12-11T03:32:22.647Z,24.67
2023-12-11T03:34:54.521Z,18.33
2023-12-11T03:37:26.500Z,26.47
2023-12-11T03:39:58.614Z,24.70
2023-12-11T03:42:30.463Z,23.80
2023-12-11T03:45:02.322Z,29.83
2023-12-11T03:47:34.447Z,23.97
2023-12-11T03:50:06.632Z,26.20
2023-12-11T03:52:38.517Z,23.10
2023-12-11T03:55:10.534Z,21.00
2023-12-11T03:57:42.549Z,21.47
2023-12-11T04:00:14.492Z,23.33
2023-12-11T04:02:46.366Z,23.57
2023-12-11T04:05:18.224Z,25.10
2023-12-11T04:07:50.096Z,27.70
2023-12-11T04:10:21.985Z,31.07
2023-12-11T04:12:53.961Z,21.17
2023-12-11T04:15:25.918Z,19.13
2023-12-11T04:17:57.881Z,20.07
2023-12-11T04:20:30.051Z,24.23
2023-12-11T04:23:01.939Z,26.63
2023-12-11T04:25:33.831Z,22.13
2023-12-11T04:28:05.827Z,28.60
2023-12-11T04:30:37.873Z,16.10
2023-12-11T04:33:09.969Z,25.17
2023-12-11T04:35:42.007Z,19.77
2023-12-11T04:38:14.502Z,20.17
2023-12-11T04:40:46.405Z,27.40
2023-12-11T04:43:18.272Z,24.93
2023-12-11T04:45:50.298Z,21.20
2023-12-11T04:48:22.255Z,17.63
2023-12-11T04:50:54.277Z,21.67
2023-12-11T04:53:26.157Z,22.13
2023-12-11T04:55:58.142Z,24.33
2023-12-11T04:58:30.146Z,16.53
2023-12-11T05:01:02.085Z,30.17
2023-12-11T05:03:34.307Z,19.47
2023-12-11T05:06:06.263Z,22.03
2023-12-11T05:08:38.197Z,22.70
2023-12-11T05:11:10.069Z,29.07
2023-12-11T05:13:41.990Z,19.07
2023-12-11T05:16:13.961Z,16.93
2023-12-11T05:18:46.031Z,21.43
2023-12-11T05:21:18.119Z,25.17
2023-12-11T05:23:50.026Z,19.03
2023-12-11T05:26:21.907Z,21.30
2023-12-11T05:28:53.795Z,23.87
2023-12-11T05:31:25.680Z,23.17
2023-12-11T05:33:57.744Z,22.00
2023-12-11T05:36:29.857Z,14.93
2023-12-11T05:39:01.781Z,22.37
2023-12-11T05:41:33.666Z,14.67
2023-12-11T05:44:07.249Z,19.20
2023-12-11T05:46:39.071Z,19.20
2023-12-11T05:49:11.031Z,12.60
2023-12-11T05:51:43.086Z,21.77
2023-12-11T05:54:15.065Z,19.47
2023-12-11T05:56:47.000Z,15.53
2023-12-11T05:59:19.340Z,12.73
2023-12-11T06:01:52.234Z,14.57
2023-12-11T06:04:24.393Z,20.63
2023-12-11T06:06:56.336Z,17.53
2023-12-11T06:09:28.301Z,11.97
2023-12-11T06:12:00.212Z,15.10
2023-12-11T06:14:32.137Z,18.93
2023-12-11T06:17:04.052Z,17.87
2023-12-11T06:19:36.244Z,14.90
2023-12-11T06:22:08.146Z,18.83
2023-12-11T06:24:40.094Z,9.77
2023-12-11T06:27:12.106Z,9.07
2023-12-11T06:29:44.035Z,10.63
2023-12-11T06:32:15.909Z,17.67
2023-12-11T06:34:47.965Z,6.97
2023-12-11T06:37:20.102Z,10.63
2023-12-11T06:39:52.713Z,16.83
2023-12-11T06:42:24.589Z,16.63
2023-12-11T06:44:56.591Z,11.27
2023-12-11T06:47:29.188Z,10.63
2023-12-11T06:50:01.534Z,11.23
2023-12-11T06:52:37.672Z,10.03
2023-12-11T06:55:09.540Z,4.37
2023-12-11T06:57:41.562Z,14.97
2023-12-11T07:00:13.564Z,14.93
2023-12-11T07:02:45.536Z,11.40
2023-12-11T07:05:17.818Z,16.30
2023-12-11T07:07:50.392Z,16.27
2023-12-11T07:10:22.468Z,12.03
2023-12-11T07:12:54.600Z,10.73
2023-12-11T07:15:26.649Z,10.90
2023-12-11T07:17:59.576Z,11.93
2023-12-11T07:20:31.716Z,7.87
2023-12-11T07:23:03.711Z,7.47
2023-12-11T07:25:35.703Z,7.07
2023-12-11T07:28:07.961Z,10.00
2023-12-11T07:30:39.927Z,9.20
2023-12-11T07:33:11.974Z,9.63
2023-12-11T07:35:43.937Z,6.93
2023-12-11T07:38:15.860Z,12.97
2023-12-11T07:40:47.735Z,11.83
2023-12-11T07:43:19.663Z,8.40
2023-12-11T07:45:52.111Z,9.57
2023-12-11T07:48:24.139Z,11.80
2023-12-11T07:50:56.201Z,8.70
2023-12-11T07:53:28.064Z,9.93
2023-12-11T07:55:59.944Z,7.67
2023-12-11T07:58:31.819Z,9.17
2023-12-11T08:01:03.871Z,10.13
2023-12-11T08:03:35.888Z,13.00
2023-12-11T08:06:07.966Z,6.13
2023-12-11T08:08:39.823Z,9.30
2023-12-11T08:11:11.779Z,8.10
2023-12-11T08:13:43.639Z,11.77
2023-12-11T08:16:15.659Z,8.93
2023-12-11T08:18:47.721Z,6.23
2023-12-11T08:21:19.620Z,11.83
2023-12-11T08:23:51.605Z,11.10
2023-12-11T08:26:24.566Z,6.47
2023-12-11T08:28:59.770Z,9.30
2023-12-11T08:31:30.244Z,4.07
2023-12-11T08:34:02.393Z,12.20
2023-12-11T08:36:34.375Z,7.47
2023-12-11T08:39:06.306Z,6.20
2023-12-11T08:41:38.233Z,9.33
2023-12-11T08:44:10.153Z,7.90
2023-12-11T08:46:42.133Z,8.10
2023-12-11T08:49:14.300Z,4.37
2023-12-11T08:51:46.453Z,8.17
2023-12-11T08:54:18.525Z,7.13
2023-12-11T08:56:50.560Z,10.27
2023-12-11T08:59:22.465Z,8.77
2023-12-11T09:01:54.537Z,7.80
2023-12-11T09:04:26.970Z,8.20
2023-12-11T09:06:59.331Z,10.07
2023-12-11T09:09:31.420Z,11.73
2023-12-11T09:12:03.379Z,11.23
2023-12-11T09:14:35.373Z,11.93
2023-12-11T09:17:07.218Z,7.73
2023-12-11T09:19:44.768Z,6.57
2023-12-11T09:22:12.773Z,13.77
2023-12-11T09:24:44.932Z,9.77
2023-12-11T09:27:17.040Z,9.03
2023-12-11T09:29:48.965Z,10.60
2023-12-11T09:32:20.880Z,9.17
2023-12-11T09:34:52.915Z,8.27
2023-12-11T09:37:25.047Z,9.40
2023-12-11T09:39:57.031Z,9.10
2023-12-11T09:42:28.992Z,11.13
2023-12-11T09:45:00.908Z,10.27
2023-12-11T09:47:33.430Z,11.77
2023-12-11T09:50:05.776Z,9.27
2023-12-11T09:52:37.884Z,14.67
2023-12-11T09:55:09.906Z,11.83
2023-12-11T09:57:41.881Z,12.80
2023-12-11T10:00:18.588Z,8.50
2023-12-11T10:02:50.531Z,13.20
2023-12-11T10:05:22.527Z,8.47
2023-12-11T10:07:54.447Z,9.03
2023-12-11T10:10:26.276Z,10.27
2023-12-11T10:12:58.169Z,9.67
2023-12-11T10:15:30.073Z,14.17
2023-12-11T10:18:02.054Z,7.97
2023-12-11T10:20:34.343Z,10.83
2023-12-11T10:23:09.004Z,12.77
2023-12-11T10:25:39.940Z,8.83
2023-12-11T10:28:12.012Z,3.97
2023-12-11T10:30:44.110Z,16.60
2023-12-11T10:33:16.219Z,8.60
2023-12-11T10:35:48.377Z,8.63
2023-12-11T10:38:20.517Z,7.70
2023-12-11T10:40:52.399Z,8.90
2023-12-11T10:43:24.430Z,12.17
2023-12-11T10:45:57.139Z,10.73
2023-12-11T10:48:29.114Z,11.23
2023-12-11T10:51:01.192Z,11.93
2023-12-11T10:53:33.060Z,10.23
2023-12-11T10:56:05.249Z,10.00
2023-12-11T10:58:37.328Z,8.17
2023-12-11T11:01:09.387Z,8.37
2023-12-11T11:03:41.807Z,5.67
2023-12-11T11:06:13.804Z,5.83
2023-12-11T11:08:46.020Z,8.13
2023-12-11T11:11:17.870Z,6.87
2023-12-11T11:13:49.726Z,3.73
2023-12-11T11:16:21.692Z,12.53
2023-12-11T11:18:53.799Z,6.93
2023-12-11T11:21:25.774Z,7.53
2023-12-11T11:23:57.812Z,10.33
2023-12-11T11:26:30.006Z,10.37
2023-12-11T11:29:01.994Z,6.70
2023-12-11T11:31:34.276Z,7.10
2023-12-11T11:34:06.412Z,8.80
2023-12-11T11:36:38.595Z,7.40
2023-12-11T11:39:10.535Z,8.47
2023-12-11T11:41:42.484Z,10.20
2023-12-11T11:44:14.525Z,7.23
2023-12-11T11:46:46.384Z,9.33
2023-12-11T11:49:18.575Z,6.67
2023-12-11T11:51:50.601Z,5.37
2023-12-11T11:54:22.434Z,7.73
2023-12-11T11:56:54.380Z,9.77
2023-12-11T11:59:26.326Z,8.50
2023-12-11T12:01:58.365Z,4.53
2023-12-11T12:04:30.496Z,9.07
2023-12-11T12:07:02.673Z,7.57
2023-12-11T12:09:34.634Z,8.70
2023-12-11T12:12:06.738Z,10.53
2023-12-11T12:14:38.617Z,6.73
2023-12-11T12:17:10.465Z,10.20
2023-12-11T12:19:42.441Z,7.57
2023-12-11T12:22:14.529Z,10.23
2023-12-11T12:24:46.678Z,3.37
2023-12-11T12:27:18.546Z,5.13
2023-12-11T12:29:50.399Z,6.87
2023-12-11T12:32:22.278Z,5.87
2023-12-11T12:34:54.232Z,8.30
2023-12-11T12:37:26.320Z,6.53
2023-12-11T12:39:58.518Z,6.77
2023-12-11T12:42:30.713Z,7.60
2023-12-11T12:45:02.603Z,7.57
2023-12-11T12:47:34.846Z,6.53
2023-12-11T12:50:07.169Z,4.63
2023-12-11T12:52:39.120Z,6.03
2023-12-11T12:55:11.137Z,5.40
2023-12-11T12:57:43.265Z,3.13
2023-12-11T13:00:15.617Z,5.57
2023-12-11T13:02:47.470Z,5.77
2023-12-11T13:05:19.413Z,4.97
2023-12-11T13:07:51.527Z,7.20
2023-12-11T13:10:23.504Z,6.37
2023-12-11T13:12:55.416Z,8.23
2023-12-11T13:15:27.432Z,5.47
2023-12-11T13:17:59.358Z,4.97
2023-12-11T13:20:31.516Z,7.20
2023-12-11T13:23:03.566Z,7.57
2023-12-11T13:25:35.439Z,6.43
2023-12-11T13:28:07.396Z,6.90
2023-12-11T13:30:39.424Z,6.93
2023-12-11T13:33:11.654Z,5.63
2023-12-11T13:35:43.658Z,8.17
2023-12-11T13:38:15.537Z,5.37
2023-12-11T13:40:47.430Z,8.97
2023-12-11T13:43:19.343Z,6.10
2023-12-11T13:45:51.393Z,4.63
2023-12-11T13:48:23.596Z,7.83
2023-12-11T13:50:55.688Z,3.83
2023-12-11T13:53:27.553Z,3.40
2023-12-11T13:55:59.519Z,6.07
2023-12-11T13:58:31.516Z,4.60
2023-12-11T14:01:03.503Z,7.83
2023-12-11T14:03:35.456Z,6.17
2023-12-11T14:06:07.401Z,3.00
2023-12-11T14:08:39.402Z,10.50
2023-12-11T14:11:11.325Z,5.73
2023-12-11T14:13:43.187Z,6.60
2023-12-11T14:16:15.750Z,5.33
2023-12-11T14:18:49.066Z,9.13
2023-12-11T14:21:21.407Z,9.37
2023-12-11T14:23:53.369Z,6.30
2023-12-11T14:26:25.349Z,4.70
2023-12-11T14:28:57.304Z,7.57
2023-12-11T14:31:29.216Z,7.73
2023-12-11T14:34:01.479Z,7.90
2023-12-11T14:36:33.732Z,5.70
2023-12-11T14:39:05.650Z,8.87
2023-12-11T14:41:37.529Z,6.10
2023-12-11T14:44:09.445Z,4.50
2023-12-11T14:46:41.303Z,6.27
2023-12-11T14:49:13.527Z,6.73
2023-12-11T14:51:45.633Z,7.03
2023-12-11T14:54:17.492Z,5.57
2023-12-11T14:56:49.529Z,6.97
2023-12-11T14:59:21.461Z,4.40
2023-12-11T15:01:53.545Z,11.90
2023-12-11T15:04:25.730Z,8.27
2023-12-11T15:06:57.808Z,9.80
2023-12-11T15:09:29.937Z,6.43
2023-12-11T15:12:01.915Z,9.07
2023-12-11T15:14:34.427Z,7.47
2023-12-11T15:17:06.354Z,9.00
2023-12-11T15:19:39.227Z,10.60
2023-12-11T15:22:11.366Z,7.50
2023-12-11T15:24:43.490Z,6.00
2023-12-11T15:27:16.579Z,5.10
2023-12-11T15:29:48.724Z,6.67
2023-12-11T15:32:20.569Z,6.27
2023-12-11T15:34:52.526Z,6.80
2023-12-11T15:37:25.218Z,11.70
2023-12-11T15:39:57.351Z,5.40
2023-12-11T15:42:29.178Z,7.63
2023-12-11T15:45:01.110Z,8.10
2023-12-11T15:47:58.562Z,4.63
2023-12-11T15:50:06.652Z,9.27
2023-12-11T15:52:38.771Z,9.20
2023-12-11T15:55:10.639Z,9.50
2023-12-11T15:57:42.632Z,6.17
2023-12-11T16:00:14.626Z,4.87
2023-12-11T16:02:46.536Z,4.73
2023-12-11T16:05:18.394Z,7.50
2023-12-11T16:07:50.297Z,5.77
2023-12-11T16:10:22.353Z,8.63
2023-12-11T16:12:54.305Z,4.70
2023-12-11T16:15:26.149Z,4.47
2023-12-11T16:17:58.126Z,6.60
2023-12-11T16:20:30.237Z,5.67
2023-12-11T16:23:02.157Z,5.80
2023-12-11T16:25:34.186Z,7.40
2023-12-11T16:28:06.834Z,11.73
2023-12-11T16:30:40.035Z,8.27
2023-12-11T16:33:11.993Z,6.30
2023-12-11T16:35:44.281Z,8.10
2023-12-11T16:38:16.177Z,5.53
2023-12-11T16:40:48.135Z,4.97
2023-12-11T16:43:20.072Z,11.97
2023-12-11T16:45:52.058Z,6.67
2023-12-11T16:48:24.251Z,6.87
2023-12-11T16:50:56.411Z,11.37
2023-12-11T16:53:28.284Z,3.80
2023-12-11T16:56:00.216Z,3.40
2023-12-11T16:58:32.096Z,7.57
2023-12-11T17:01:04.196Z,7.03
2023-12-11T17:03:36.166Z,7.13
2023-12-11T17:06:08.271Z,10.00
2023-12-11T17:08:40.234Z,7.23
2023-12-11T17:11:12.170Z,7.97
2023-12-11T17:13:44.272Z,8.40
2023-12-11T17:16:16.259Z,9.63
2023-12-11T17:18:48.683Z,14.33
2023-12-11T17:21:25.455Z,7.87
2023-12-11T17:23:54.319Z,5.10
2023-12-11T17:26:26.157Z,8.47
2023-12-11T17:28:58.102Z,8.30
2023-12-11T17:31:30.020Z,8.70
2023-12-11T17:34:02.038Z,12.87
2023-12-11T17:36:34.209Z,11.20
2023-12-11T17:39:06.077Z,4.97
2023-12-11T17:41:37.927Z,8.03
2023-12-11T17:44:09.805Z,12.67
2023-12-11T17:46:41.708Z,5.63
2023-12-11T17:49:13.731Z,9.17
2023-12-11T17:51:45.741Z,9.63
2023-12-11T17:54:17.702Z,5.90
2023-12-11T17:56:49.566Z,8.83
2023-12-11T17:59:22.001Z,7.73
2023-12-11T18:01:54.561Z,5.70
2023-12-11T18:04:26.760Z,9.33
2023-12-11T18:06:59.151Z,8.10
2023-12-11T18:09:32.141Z,7.97
2023-12-11T18:12:05.093Z,10.17
2023-12-11T18:14:37.053Z,19.50
2023-12-11T18:17:08.970Z,8.67
2023-12-11T18:19:40.964Z,11.37
2023-12-11T18:22:12.891Z,7.07
2023-12-11T18:24:46.638Z,11.20
2023-12-11T18:27:18.723Z,6.13
2023-12-11T18:29:51.609Z,8.23
2023-12-11T18:32:24.649Z,6.50
2023-12-11T18:34:56.598Z,8.47
2023-12-11T18:37:29.383Z,10.30
2023-12-11T18:40:02.030Z,5.73
2023-12-11T18:42:34.199Z,15.13
2023-12-11T18:45:06.346Z,8.10
2023-12-11T18:47:38.310Z,8.27
2023-12-11T18:50:10.308Z,11.13
2023-12-11T18:52:42.284Z,8.30
2023-12-11T18:55:14.187Z,10.30
2023-12-11T18:57:46.108Z,12.10
2023-12-11T19:00:18.091Z,7.27
2023-12-11T19:02:50.926Z,8.97
2023-12-11T19:05:23.291Z,10.83
2023-12-11T19:07:55.370Z,13.43
2023-12-11T19:10:27.318Z,8.20
2023-12-11T19:12:59.266Z,11.77
2023-12-11T19:15:31.165Z,10.03
2023-12-11T19:18:03.290Z,5.97
2023-12-11T19:20:35.482Z,8.67
2023-12-11T19:23:07.478Z,6.03
2023-12-11T19:25:39.345Z,6.03
2023-12-11T19:28:11.267Z,7.10
2023-12-11T19:30:43.275Z,6.97
2023-12-11T19:33:15.721Z,9.40
2023-12-11T19:35:47.659Z,7.97
2023-12-11T19:38:19.621Z,10.07
2023-12-11T19:40:51.517Z,9.20
2023-12-11T19:43:23.463Z,10.20
2023-12-11T19:45:55.456Z,7.27
2023-12-11T19:48:27.500Z,6.33
2023-12-11T19:50:59.458Z,9.80
2023-12-11T19:53:32.714Z,7.70
2023-12-11T19:56:04.688Z,10.43
2023-12-11T19:58:36.677Z,7.53
2023-12-11T20:01:08.712Z,5.67
2023-12-11T20:03:40.968Z,10.40
2023-12-11T20:06:13.326Z,10.70
2023-12-11T20:08:45.260Z,8.10
2023-12-11T20:11:17.202Z,8.00
2023-12-11T20:13:49.177Z,6.00
2023-12-11T20:16:21.125Z,6.50
2023-12-11T20:18:53.166Z,5.07
2023-12-11T20:21:25.278Z,6.40
2023-12-11T20:23:57.177Z,9.03
2023-12-11T20:26:29.040Z,6.60
2023-12-11T20:29:01.006Z,14.23
2023-12-11T20:31:33.030Z,10.07
2023-12-11T20:34:05.223Z,11.17
2023-12-11T20:36:37.220Z,6.97
2023-12-11T20:39:09.105Z,7.57
2023-12-11T20:41:40.956Z,7.13
2023-12-11T20:44:12.780Z,8.10
2023-12-11T20:46:44.654Z,10.63
2023-12-11T20:49:16.738Z,6.40
2023-12-11T20:51:48.816Z,5.97
2023-12-11T20:54:20.626Z,4.93
2023-12-11T20:56:52.918Z,6.10
2023-12-11T20:59:24.739Z,6.10
2023-12-11T21:01:57.079Z,4.77
2023-12-11T21:04:29.281Z,3.63
2023-12-11T21:07:02.267Z,5.30
2023-12-11T21:09:34.212Z,4.80
2023-12-11T21:12:06.307Z,10.67
2023-12-11T21:14:38.418Z,9.23
2023-12-11T21:17:10.411Z,8.23
2023-12-11T21:19:42.315Z,4.93
2023-12-11T21:22:15.544Z,8.70
2023-12-11T21:24:47.574Z,5.13
2023-12-11T21:27:19.831Z,5.47
2023-12-11T21:29:51.663Z,6.03
2023-12-11T21:32:23.523Z,6.47
2023-12-11T21:34:55.571Z,5.97
2023-12-11T21:37:27.741Z,8.53
2023-12-11T21:40:00.021Z,5.50
2023-12-11T21:42:32.192Z,6.30
2023-12-11T21:45:04.969Z,6.13
2023-12-11T21:47:37.395Z,6.57
2023-12-11T21:50:10.223Z,6.53
2023-12-11T21:52:42.578Z,7.00
2023-12-11T21:55:14.530Z,6.83
2023-12-11T21:57:47.886Z,3.43
2023-12-11T22:00:19.987Z,6.27
2023-12-11T22:02:51.864Z,6.07
2023-12-11T22:05:23.859Z,2.73
2023-12-11T22:07:55.829Z,3.53
2023-12-11T22:10:27.833Z,3.00
2023-12-11T22:12:59.820Z,6.03
2023-12-11T22:15:33.714Z,7.73
2023-12-11T22:18:05.706Z,5.37
2023-12-11T22:20:37.683Z,5.00
2023-12-11T22:23:09.635Z,6.00
2023-12-11T22:25:41.450Z,6.30
2023-12-11T22:28:13.628Z,2.73
2023-12-11T22:30:46.126Z,5.43
2023-12-11T22:33:18.090Z,4.87
2023-12-11T22:35:49.992Z,8.07
2023-12-11T22:38:21.843Z,7.63
2023-12-11T22:40:53.869Z,10.80
2023-12-11T22:43:25.765Z,5.70
2023-12-11T22:46:00.243Z,6.13
2023-12-11T22:48:32.438Z,4.40
2023-12-11T22:51:04.517Z,4.37
2023-12-11T22:53:36.353Z,6.90
2023-12-11T22:56:08.273Z,6.10
2023-12-11T22:58:40.251Z,4.57
2023-12-11T23:01:12.168Z,4.77
2023-12-11T23:03:44.617Z,4.30
2023-12-11T23:06:16.731Z,2.23
2023-12-11T23:08:49.097Z,4.93
2023-12-11T23:11:22.120Z,7.10
2023-12-11T23:13:54.005Z,5.00
2023-12-11T23:16:25.861Z,3.83
2023-12-11T23:18:57.765Z,7.90
2023-12-11T23:21:29.710Z,2.90
2023-12-11T23:24:01.595Z,4.80
2023-12-11T23:26:33.464Z,3.73
2023-12-11T23:29:05.373Z,4.20
2023-12-11T23:31:37.211Z,3.30
2023-12-11T23:34:09.176Z,6.17
2023-12-11T23:36:41.248Z,4.73
2023-12-11T23:39:13.111Z,6.27
2023-12-11T23:41:45.026Z,4.03
2023-12-11T23:44:16.917Z,7.40
2023-12-11T23:46:48.978Z,5.30
2023-12-11T23:49:21.041Z,3.50
2023-12-11T23:51:53.043Z,6.07
2023-12-11T23:54:24.877Z,4.63
2023-12-11T23:56:56.749Z,5.80
2023-12-11T23:59:28.638Z,7.07
